createdAt,value
2023-01-29T00:00:23.878Z,81.05
2023-01-29T00:02:52.686Z,81.33
2023-01-29T00:05:27.923Z,80.92
2023-01-29T00:07:57.259Z,79.21
2023-01-29T00:10:26.156Z,78.32
2023-01-29T00:12:54.837Z,79.61
2023-01-29T00:15:23.420Z,80.37
2023-01-29T00:17:51.915Z,80.59
2023-01-29T00:20:20.375Z,81.34
2023-01-29T00:22:50.192Z,80.78
2023-01-29T00:25:18.579Z,79.49
2023-01-29T00:27:47.459Z,79.35
2023-01-29T00:30:20.073Z,80.05
2023-01-29T00:32:48.936Z,79.88
2023-01-29T00:35:17.819Z,81.27
2023-01-29T00:37:46.944Z,81.81
2023-01-29T00:40:17.005Z,81.47
2023-01-29T00:43:04.491Z,79.96
2023-01-29T00:45:36.861Z,78.82
2023-01-29T00:48:07.562Z,79.93
2023-01-29T00:50:36.349Z,81.03
2023-01-29T00:53:05.142Z,80.93
2023-01-29T00:55:34.139Z,81.77
2023-01-29T00:58:03.779Z,82.44
2023-01-29T01:00:33.209Z,80.91
2023-01-29T01:03:08.172Z,79.51
2023-01-29T01:05:37.306Z,80.42
2023-01-29T01:08:26.032Z,81.44
2023-01-29T01:11:05.955Z,81.67
2023-01-29T01:13:34.768Z,81.98
2023-01-29T01:16:12.820Z,81.82
2023-01-29T01:18:41.868Z,80.57
2023-01-29T01:21:10.346Z,78.93
2023-01-29T01:23:39.130Z,79.57
2023-01-29T01:26:11.439Z,80.97
2023-01-29T01:28:39.888Z,81.80
2023-01-29T01:31:10.620Z,82.81
2023-01-29T01:33:39.403Z,81.43
2023-01-29T01:36:09.978Z,79.41
2023-01-29T01:38:48.030Z,79.32
2023-01-29T01:41:19.080Z,80.39
2023-01-29T01:43:54.867Z,81.34
2023-01-29T01:46:24.022Z,81.48
2023-01-29T01:49:05.403Z,82.09
2023-01-29T01:51:36.574Z,80.84
2023-01-29T01:54:08.690Z,79.27
2023-01-29T01:56:41.294Z,78.79
2023-01-29T01:59:11.940Z,80.11
2023-01-29T02:01:43.089Z,80.47
2023-01-29T02:04:32.991Z,80.95
2023-01-29T02:07:22.326Z,80.18
2023-01-29T02:09:58.218Z,78.88
2023-01-29T02:12:26.960Z,79.00
2023-01-29T02:14:56.736Z,79.96
2023-01-29T02:17:25.412Z,80.07
2023-01-29T02:20:12.993Z,80.77
2023-01-29T02:23:27.349Z,81.05
2023-01-29T02:26:05.141Z,78.59
2023-01-29T02:29:27.289Z,79.10
2023-01-29T02:32:17.520Z,79.66
2023-01-29T02:35:10.876Z,80.53
2023-01-29T02:37:40.539Z,81.55
2023-01-29T02:40:17.548Z,81.22
2023-01-29T02:43:20.100Z,79.99
2023-01-29T02:45:54.210Z,79.62
2023-01-29T02:48:24.230Z,79.84
2023-01-29T02:51:03.879Z,80.33
2023-01-29T02:53:42.490Z,81.06
2023-01-29T02:56:17.660Z,80.31
2023-01-29T02:58:47.563Z,78.90
2023-01-29T03:01:35.466Z,77.69
2023-01-29T03:04:07.027Z,78.01
2023-01-29T03:06:38.377Z,79.11
2023-01-29T03:09:20.203Z,79.69
2023-01-29T03:11:53.360Z,80.31
2023-01-29T03:15:04.146Z,80.47
2023-01-29T03:17:36.966Z,79.79
2023-01-29T03:20:08.412Z,78.10
2023-01-29T03:22:37.182Z,78.12
2023-01-29T03:25:25.541Z,78.49
2023-01-29T03:28:18.571Z,78.48
2023-01-29T03:31:14.837Z,79.04
2023-01-29T03:34:16.641Z,79.57
2023-01-29T03:36:55.909Z,79.12
2023-01-29T03:39:28.682Z,77.77
2023-01-29T03:42:10.642Z,77.58
2023-01-29T03:45:02.503Z,77.16
2023-01-29T03:47:59.134Z,78.30
2023-01-29T03:58:28.711Z,77.14
2023-01-29T04:01:00.552Z,76.17
2023-01-29T04:03:33.638Z,77.16
2023-01-29T04:06:12.659Z,77.29
2023-01-29T04:08:57.431Z,77.62
2023-01-29T04:11:27.041Z,77.81
2023-01-29T04:13:56.791Z,78.54
2023-01-29T04:16:38.723Z,79.14
2023-01-29T04:19:24.120Z,78.39
2023-01-29T04:21:56.389Z,77.11
2023-01-29T04:24:24.895Z,76.90
2023-01-29T04:27:29.159Z,76.93
2023-01-29T04:30:20.501Z,77.15
2023-01-29T04:33:04.775Z,77.64
2023-01-29T04:35:42.961Z,78.62
2023-01-29T04:38:11.644Z,78.24
2023-01-29T04:40:58.467Z,76.69
2023-01-29T04:43:56.749Z,75.35
2023-01-29T04:46:34.406Z,75.83
2023-01-29T04:49:10.695Z,76.51
2023-01-29T04:51:52.796Z,77.01
2023-01-29T04:54:26.207Z,77.89
2023-01-29T04:57:02.558Z,78.75
2023-01-29T04:59:33.926Z,77.20
2023-01-29T05:02:05.252Z,75.19
2023-01-29T05:04:34.763Z,74.45
2023-01-29T05:07:04.996Z,74.76
2023-01-29T05:09:33.581Z,75.27
2023-01-29T05:12:02.353Z,75.50
2023-01-29T05:14:31.255Z,76.25
2023-01-29T05:17:00.128Z,76.83
2023-01-29T05:19:29.437Z,77.92
2023-01-29T05:21:58.015Z,78.24
2023-01-29T05:24:26.849Z,77.22
2023-01-29T05:27:16.997Z,74.90
2023-01-29T05:29:46.975Z,74.23
2023-01-29T05:32:16.409Z,74.35
2023-01-29T05:34:48.791Z,74.73
2023-01-29T05:37:17.444Z,75.65
2023-01-29T05:39:46.258Z,76.64
2023-01-29T05:42:18.946Z,77.27
2023-01-29T05:44:47.473Z,78.05
2023-01-29T05:47:20.141Z,78.02
2023-01-29T05:49:48.584Z,75.96
2023-01-29T05:52:17.152Z,75.15
2023-01-29T05:54:45.847Z,75.40
2023-01-29T05:57:15.143Z,75.34
2023-01-29T05:59:43.625Z,75.89
2023-01-29T06:02:12.177Z,76.84
2023-01-29T06:04:40.931Z,77.67
2023-01-29T06:14:51.400Z,75.97
2023-01-29T06:17:20.752Z,75.24
2023-01-29T06:19:49.408Z,75.55
2023-01-29T06:22:17.969Z,76.07
2023-01-29T06:24:46.451Z,76.81
2023-01-29T06:27:14.941Z,77.51
2023-01-29T06:29:43.412Z,78.75
2023-01-29T06:32:11.887Z,79.07
2023-01-29T06:34:42.021Z,78.42
2023-01-29T06:37:11.251Z,76.54
2023-01-29T06:39:39.823Z,75.79
2023-01-29T06:42:08.886Z,76.04
2023-01-29T06:44:37.468Z,77.02
2023-01-29T06:47:06.153Z,77.69
2023-01-29T06:49:34.798Z,78.50
2023-01-29T06:52:03.627Z,78.59
2023-01-29T06:54:32.321Z,78.81
2023-01-29T06:57:00.903Z,77.84
2023-01-29T06:59:29.586Z,75.93
2023-01-29T07:01:58.196Z,75.65
2023-01-29T07:04:27.058Z,75.00
2023-01-29T07:06:55.769Z,75.87
2023-01-29T07:09:24.425Z,76.27
2023-01-29T07:11:53.352Z,76.74
2023-01-29T07:14:22.474Z,77.19
2023-01-29T07:16:51.228Z,77.08
2023-01-29T07:19:19.893Z,76.43
2023-01-29T07:21:48.565Z,73.71
2023-01-29T07:24:19.430Z,73.02
2023-01-29T07:26:48.089Z,73.09
2023-01-29T07:29:16.672Z,74.02
2023-01-29T07:31:45.292Z,74.04
2023-01-29T07:34:14.043Z,74.62
2023-01-29T07:36:42.946Z,75.40
2023-01-29T07:39:11.535Z,75.57
2023-01-29T07:41:40.113Z,75.42
2023-01-29T07:44:17.414Z,74.00
2023-01-29T07:46:46.070Z,72.37
2023-01-29T07:57:45.947Z,73.43
2023-01-29T08:00:14.496Z,74.41
2023-01-29T08:02:41.762Z,75.08
2023-01-29T08:05:09.831Z,75.43
2023-01-29T08:07:38.824Z,76.25
2023-01-29T08:10:06.176Z,75.16
2023-01-29T08:12:33.539Z,73.58
2023-01-29T08:15:00.887Z,73.31
2023-01-29T08:17:28.968Z,73.42
2023-01-29T08:27:34.358Z,74.41
2023-01-29T08:30:02.832Z,75.01
2023-01-29T08:32:35.777Z,75.20
2023-01-29T08:35:05.629Z,74.77
2023-01-29T08:37:34.719Z,72.95
2023-01-29T08:40:04.327Z,72.77
2023-01-29T08:42:33.163Z,73.02
2023-01-29T08:45:01.806Z,73.92
2023-01-29T08:47:31.052Z,73.52
2023-01-29T08:49:59.683Z,74.56
2023-01-29T08:52:28.169Z,76.33
2023-01-29T08:54:59.556Z,77.56
2023-01-29T08:57:28.713Z,78.61
2023-01-29T08:59:57.392Z,79.06
2023-01-29T09:02:27.685Z,78.26
2023-01-29T09:04:56.769Z,77.52
2023-01-29T09:07:25.395Z,78.47
2023-01-29T09:09:54.195Z,78.58
2023-01-29T09:12:23.282Z,79.86
2023-01-29T09:14:54.225Z,79.89
2023-01-29T09:17:22.815Z,79.75
2023-01-29T09:19:53.364Z,79.39
2023-01-29T09:22:22.224Z,77.16
2023-01-29T09:24:51.018Z,75.90
2023-01-29T09:27:19.795Z,75.60
2023-01-29T09:29:48.507Z,76.07
2023-01-29T09:32:37.655Z,76.64
2023-01-29T09:35:06.639Z,77.41
2023-01-29T09:37:34.924Z,77.75
2023-01-29T09:40:04.078Z,78.28
2023-01-29T09:42:42.874Z,77.24
2023-01-29T09:45:16.093Z,76.26
2023-01-29T09:47:45.219Z,75.70
2023-01-29T09:50:20.288Z,75.54
2023-01-29T09:53:33.094Z,75.31
2023-01-29T09:56:03.272Z,75.48
2023-01-29T09:58:34.262Z,74.78
2023-01-29T10:01:41.420Z,75.34
2023-01-29T10:04:39.773Z,75.54
2023-01-29T10:07:16.479Z,74.27
2023-01-29T10:10:07.151Z,73.59
2023-01-29T10:12:51.435Z,73.24
2023-01-29T10:16:01.827Z,73.32
2023-01-29T10:19:06.317Z,73.40
2023-01-29T10:21:57.125Z,71.61
2023-01-29T10:25:06.675Z,70.97
2023-01-29T10:27:39.011Z,70.67
2023-01-29T10:30:21.753Z,70.19
2023-01-29T10:32:50.436Z,70.48
2023-01-29T10:35:27.624Z,70.76
2023-01-29T10:38:09.438Z,69.78
2023-01-29T10:40:40.280Z,68.92
2023-01-29T10:43:17.229Z,68.66
2023-01-29T10:46:20.833Z,68.80
2023-01-29T10:48:59.350Z,69.03
2023-01-29T10:51:56.043Z,69.42
2023-01-29T10:54:49.352Z,70.63
2023-01-29T10:57:42.942Z,70.70
2023-01-29T11:00:26.003Z,70.49
2023-01-29T11:02:54.596Z,71.07
2023-01-29T11:05:35.339Z,71.33
2023-01-29T11:08:07.354Z,69.75
2023-01-29T11:10:40.036Z,68.60
2023-01-29T11:13:18.147Z,67.99
2023-01-29T11:15:46.726Z,68.74
2023-01-29T11:18:16.239Z,69.09
2023-01-29T11:20:45.551Z,69.60
2023-01-29T11:23:33.681Z,69.63
2023-01-29T11:26:02.168Z,70.89
2023-01-29T11:28:39.950Z,70.70
2023-01-29T11:31:22.740Z,70.85
2023-01-29T11:33:52.594Z,70.88
2023-01-29T11:36:23.128Z,70.83
2023-01-29T11:39:15.757Z,69.14
2023-01-29T11:42:05.031Z,66.80
2023-01-29T11:44:33.881Z,66.30
2023-01-29T11:47:16.223Z,65.77
2023-01-29T11:49:54.743Z,65.72
2023-01-29T11:52:34.490Z,67.11
2023-01-29T11:55:05.770Z,66.99
2023-01-29T11:57:40.977Z,67.87
2023-01-29T12:00:33.823Z,68.81
2023-01-29T12:03:12.576Z,68.94
2023-01-29T12:05:41.161Z,69.19
2023-01-29T12:08:17.173Z,69.14
2023-01-29T12:10:45.862Z,69.84
2023-01-29T12:13:27.965Z,70.31
2023-01-29T12:16:10.714Z,69.80
2023-01-29T12:18:41.931Z,68.21
2023-01-29T12:21:21.120Z,66.52
2023-01-29T12:24:04.522Z,66.60
2023-01-29T12:26:55.600Z,66.99
2023-01-29T12:29:45.998Z,67.35
2023-01-29T12:32:39.351Z,68.50
2023-01-29T12:35:29.887Z,68.47
2023-01-29T12:38:07.342Z,69.04
2023-01-29T12:40:40.427Z,69.48
2023-01-29T12:43:20.316Z,68.49
2023-01-29T12:45:52.533Z,67.78
2023-01-29T12:48:28.612Z,68.09
2023-01-29T12:50:59.363Z,68.78
2023-01-29T12:53:33.044Z,69.39
2023-01-29T12:56:13.652Z,68.76
2023-01-29T12:58:50.603Z,67.33
2023-01-29T13:01:32.482Z,65.01
2023-01-29T13:04:07.339Z,64.06
2023-01-29T13:06:41.880Z,64.19
2023-01-29T13:09:14.503Z,64.98
2023-01-29T13:11:59.888Z,65.66
2023-01-29T13:15:04.315Z,66.21
2023-01-29T13:17:45.698Z,67.29
2023-01-29T13:20:34.455Z,68.05
2023-01-29T13:23:18.093Z,68.55
2023-01-29T13:25:47.077Z,68.89
2023-01-29T13:28:23.441Z,69.22
2023-01-29T13:31:10.901Z,68.81
2023-01-29T13:33:40.782Z,69.10
2023-01-29T13:36:15.661Z,69.86
2023-01-29T13:38:45.427Z,70.39
2023-01-29T13:41:13.910Z,69.12
2023-01-29T13:43:43.918Z,66.72
2023-01-29T13:46:18.115Z,65.73
2023-01-29T13:48:47.857Z,65.80
2023-01-29T13:51:20.591Z,67.00
2023-01-29T13:54:10.148Z,67.39
2023-01-29T13:56:48.007Z,68.49
2023-01-29T13:59:53.618Z,67.55
2023-01-29T14:02:25.005Z,68.89
2023-01-29T14:05:31.519Z,68.84
2023-01-29T14:08:06.509Z,68.92
2023-01-29T14:10:36.429Z,70.18
2023-01-29T14:13:19.654Z,70.07
2023-01-29T14:15:57.555Z,70.17
2023-01-29T14:18:30.021Z,69.75
2023-01-29T14:21:12.328Z,68.44
2023-01-29T14:23:47.119Z,66.75
2023-01-29T14:26:33.620Z,66.46
2023-01-29T14:29:08.392Z,66.53
2023-01-29T14:31:44.018Z,66.55
2023-01-29T14:34:19.312Z,67.03
2023-01-29T14:36:47.959Z,67.45
2023-01-29T14:39:34.872Z,68.02
2023-01-29T14:42:05.589Z,68.43
2023-01-29T14:44:47.785Z,68.46
2023-01-29T14:47:43.841Z,69.28
2023-01-29T14:50:32.206Z,69.34
2023-01-29T14:53:09.363Z,69.01
2023-01-29T14:55:40.055Z,69.56
2023-01-29T14:58:33.459Z,70.36
2023-01-29T15:01:02.505Z,68.92
2023-01-29T15:03:37.010Z,66.62
2023-01-29T15:06:05.767Z,65.62
2023-01-29T15:08:54.212Z,65.81
2023-01-29T15:11:41.025Z,66.91
2023-01-29T15:14:24.153Z,67.94
2023-01-29T15:17:07.014Z,68.63
2023-01-29T15:19:45.284Z,69.35
2023-01-29T15:22:20.202Z,70.17
2023-01-29T15:25:03.359Z,70.43
2023-01-29T15:27:32.128Z,70.73
2023-01-29T15:30:03.208Z,70.43
2023-01-29T15:32:39.935Z,69.70
2023-01-29T15:35:46.282Z,69.34
2023-01-29T15:38:14.986Z,68.19
2023-01-29T15:40:59.499Z,66.10
2023-01-29T15:43:48.002Z,65.13
2023-01-29T15:46:21.517Z,64.92
2023-01-29T15:48:51.506Z,64.77
2023-01-29T15:51:24.622Z,64.36
2023-01-29T15:54:04.068Z,65.34
2023-01-29T15:56:52.081Z,65.77
2023-01-29T15:59:26.298Z,65.68
2023-01-29T16:01:54.932Z,66.17
2023-01-29T16:04:29.194Z,66.70
2023-01-29T16:06:59.964Z,67.21
2023-01-29T16:09:29.089Z,68.21
2023-01-29T16:11:58.319Z,67.98
2023-01-29T16:14:27.547Z,68.43
2023-01-29T16:16:56.793Z,69.13
2023-01-29T16:19:27.547Z,69.38
2023-01-29T16:22:01.268Z,69.68
2023-01-29T16:24:30.154Z,68.97
2023-01-29T16:27:03.839Z,66.98
2023-01-29T16:29:33.429Z,66.63
2023-01-29T16:32:03.280Z,66.64
2023-01-29T16:34:50.021Z,67.04
2023-01-29T16:37:30.344Z,67.15
2023-01-29T16:39:59.100Z,68.65
2023-01-29T16:42:29.447Z,68.81
2023-01-29T16:45:02.736Z,69.02
2023-01-29T16:47:37.912Z,69.44
2023-01-29T16:50:18.743Z,70.08
2023-01-29T16:52:58.296Z,70.78
2023-01-29T16:55:26.876Z,70.34
2023-01-29T16:57:56.170Z,68.59
2023-01-29T17:00:27.367Z,66.23
2023-01-29T17:02:59.797Z,65.46
2023-01-29T17:05:31.537Z,65.66
2023-01-29T17:08:00.328Z,65.38
2023-01-29T17:10:29.339Z,65.37
2023-01-29T17:13:00.483Z,65.84
2023-01-29T17:15:47.817Z,65.94
2023-01-29T17:18:20.778Z,66.78
2023-01-29T17:28:28.558Z,67.05
2023-01-29T17:31:06.284Z,66.28
2023-01-29T17:33:38.874Z,66.60
2023-01-29T17:36:15.287Z,66.91
2023-01-29T17:38:43.944Z,67.92
2023-01-29T17:41:20.316Z,67.94
2023-01-29T17:43:49.018Z,68.34
2023-01-29T17:46:17.991Z,68.29
2023-01-29T17:48:46.880Z,68.43
2023-01-29T17:51:17.519Z,67.68
2023-01-29T17:53:47.072Z,64.94
2023-01-29T17:56:30.151Z,63.32
2023-01-29T17:58:58.829Z,63.64
2023-01-29T18:01:27.565Z,63.80
2023-01-29T18:03:56.840Z,64.68
2023-01-29T18:06:29.527Z,65.44
2023-01-29T18:08:59.003Z,65.76
2023-01-29T18:11:28.397Z,65.58
2023-01-29T18:13:57.487Z,65.58
2023-01-29T18:16:27.014Z,66.17
2023-01-29T18:18:57.027Z,67.05
2023-01-29T18:21:26.045Z,66.92
2023-01-29T18:23:54.379Z,67.45
2023-01-29T18:26:23.132Z,68.08
2023-01-29T18:28:52.467Z,68.17
2023-01-29T18:31:21.691Z,68.24
2023-01-29T18:33:50.260Z,69.06
2023-01-29T18:36:19.171Z,69.34
2023-01-29T18:38:49.086Z,69.16
2023-01-29T18:41:18.560Z,67.78
2023-01-29T18:43:48.061Z,66.06
2023-01-29T18:46:17.017Z,65.23
2023-01-29T18:48:46.661Z,65.37
2023-01-29T18:51:15.566Z,65.31
2023-01-29T18:53:46.553Z,65.75
2023-01-29T18:56:15.688Z,66.46
2023-01-29T18:58:52.097Z,67.03
2023-01-29T19:01:27.583Z,67.59
2023-01-29T19:03:56.493Z,68.05
2023-01-29T19:06:24.971Z,68.50
2023-01-29T19:08:55.395Z,68.72
2023-01-29T19:11:24.120Z,69.02
2023-01-29T19:13:53.376Z,69.28
2023-01-29T19:16:23.705Z,69.88
2023-01-29T19:18:53.825Z,70.18
2023-01-29T19:21:22.422Z,70.16
2023-01-29T19:23:52.261Z,70.73
2023-01-29T19:26:21.249Z,70.57
2023-01-29T19:28:51.341Z,70.30
2023-01-29T19:31:24.035Z,68.18
2023-01-29T19:33:52.797Z,66.42
2023-01-29T19:36:21.689Z,67.10
2023-01-29T19:38:50.843Z,66.84
2023-01-29T19:41:19.367Z,67.48
2023-01-29T19:43:48.566Z,67.65
2023-01-29T19:46:17.874Z,68.20
2023-01-29T19:48:46.961Z,68.57
2023-01-29T19:51:15.437Z,68.98
2023-01-29T19:53:44.533Z,69.63
2023-01-29T19:56:15.263Z,70.31
2023-01-29T19:58:44.055Z,71.15
2023-01-29T20:01:14.850Z,71.04
2023-01-29T20:03:46.772Z,71.27
2023-01-29T20:06:16.841Z,71.56
2023-01-29T20:08:46.788Z,71.80
2023-01-29T20:11:20.526Z,71.23
2023-01-29T20:13:50.381Z,68.78
2023-01-29T20:16:19.150Z,67.20
2023-01-29T20:18:49.818Z,67.11
2023-01-29T20:21:21.159Z,67.38
2023-01-29T20:23:51.903Z,67.57
2023-01-29T20:26:20.538Z,67.99
2023-01-29T20:28:49.578Z,68.89
2023-01-29T20:31:18.417Z,69.34
2023-01-29T20:33:47.360Z,69.98
2023-01-29T20:36:16.050Z,70.38
2023-01-29T20:38:44.932Z,70.25
2023-01-29T20:41:14.975Z,71.04
2023-01-29T20:43:44.408Z,71.74
2023-01-29T20:46:13.466Z,72.01
2023-01-29T20:48:44.200Z,72.64
2023-01-29T20:51:15.841Z,72.00
2023-01-29T20:53:45.820Z,70.06
2023-01-29T20:56:16.193Z,68.67
2023-01-29T20:58:45.182Z,69.01
2023-01-29T21:01:16.607Z,69.23
2023-01-29T21:03:45.309Z,69.72
2023-01-29T21:06:14.319Z,70.09
2023-01-29T21:08:44.929Z,70.59
2023-01-29T21:11:14.023Z,71.06
2023-01-29T21:13:44.352Z,70.98
2023-01-29T21:16:13.747Z,71.40
2023-01-29T21:18:42.434Z,71.43
2023-01-29T21:21:11.444Z,71.63
2023-01-29T21:23:40.221Z,71.55
2023-01-29T21:26:09.452Z,71.14
2023-01-29T21:28:38.211Z,69.29
2023-01-29T21:31:11.390Z,68.06
2023-01-29T21:33:39.876Z,67.69
2023-01-29T21:36:10.299Z,68.18
2023-01-29T21:38:39.184Z,68.65
2023-01-29T21:41:09.203Z,68.98
2023-01-29T21:43:37.724Z,69.99
2023-01-29T21:46:12.264Z,70.71
2023-01-29T21:48:40.910Z,71.25
2023-01-29T21:51:09.495Z,72.18
2023-01-29T21:53:38.495Z,72.58
2023-01-29T21:56:07.150Z,72.89
2023-01-29T21:58:35.848Z,73.31
2023-01-29T22:01:36.403Z,71.26
2023-01-29T22:04:09.062Z,69.44
2023-01-29T22:06:37.546Z,69.33
2023-01-29T22:09:07.775Z,69.93
2023-01-29T22:11:37.049Z,71.01
2023-01-29T22:14:06.069Z,71.54
2023-01-29T22:16:36.313Z,72.35
2023-01-29T22:19:05.458Z,73.09
2023-01-29T22:21:35.880Z,74.04
2023-01-29T22:24:05.391Z,74.85
2023-01-29T22:26:34.485Z,73.54
2023-01-29T22:29:03.181Z,72.10
2023-01-29T22:31:31.876Z,71.14
2023-01-29T22:34:00.540Z,71.65
2023-01-29T22:36:29.230Z,72.12
2023-01-29T22:38:57.918Z,72.84
2023-01-29T22:41:27.529Z,73.53
2023-01-29T22:43:56.204Z,74.24
2023-01-29T22:46:25.465Z,75.37
2023-01-29T22:48:54.750Z,76.34
2023-01-29T22:51:23.597Z,75.73
2023-01-29T22:53:54.233Z,73.92
2023-01-29T22:56:25.588Z,73.17
2023-01-29T22:58:55.795Z,73.08
2023-01-29T23:01:28.693Z,73.09
2023-01-29T23:03:57.367Z,73.49
2023-01-29T23:06:26.058Z,74.61
2023-01-29T23:08:54.535Z,74.71
2023-01-29T23:11:24.137Z,74.65
2023-01-29T23:13:55.757Z,75.75
2023-01-29T23:16:27.688Z,75.26
2023-01-29T23:18:56.928Z,73.54
2023-01-29T23:21:26.170Z,72.78
2023-01-29T23:24:01.613Z,72.47
2023-01-29T23:26:49.458Z,73.21
2023-01-29T23:29:18.159Z,73.87
2023-01-29T23:31:47.806Z,74.69
2023-01-29T23:34:16.832Z,75.52
2023-01-29T23:36:45.204Z,76.58
2023-01-29T23:39:13.782Z,77.12
2023-01-29T23:41:42.460Z,75.71
2023-01-29T23:44:10.940Z,74.56
2023-01-29T23:46:39.962Z,74.09
2023-01-29T23:49:08.924Z,74.80
2023-01-29T23:51:37.306Z,74.85
2023-01-29T23:54:05.899Z,76.30
2023-01-29T23:56:34.574Z,76.14
2023-01-29T23:59:03.216Z,76.55
